Voorhees Township, New Jersey
Current Conditions -  °F | °C
As of 6:54 PM on Friday 21 Nov 2014 (Local Time) from KVAY Reporting Station
Clear Clear  
Wind Chill: 31°   Ceiling: Unl
Heat Index: 31°   Visibility: 10mi
Dew Point:   Wind: 3mph
Humidity: 38%   Direction: 280°W
Pressure: 30.51"   Gusts: NA
Location:  39.8445°N, 74.9532°W
Report Text: KVAY 212354Z AUTO 28003KT 10SM CLR M01/M13 A3051 RMK AO2 SLP330 T10061133 10022 21006 51028
Loading
Personal Weather Stations






























Interactive Weather Map New forecast layout! Learn more

10-Day Weather Forecast

Advertisements
Track Severe Weather on mobile